createdAt,value
2017-12-05T06:54:40.166Z,13.04
2017-12-05T06:54:40.704Z,12.99
2017-12-05T06:54:41.268Z,12.99
2017-12-05T06:54:41.805Z,12.96
2017-12-05T06:54:42.346Z,12.96
2017-12-05T06:54:42.910Z,12.91
2017-12-05T06:54:43.427Z,12.96
2017-12-05T06:54:43.920Z,12.96
2017-12-05T06:55:38.384Z,11.30
2017-12-05T06:55:38.907Z,11.24
2017-12-05T06:55:39.499Z,11.20
2017-12-05T06:55:40.047Z,11.21
2017-12-05T06:55:40.554Z,11.24
2017-12-05T06:55:41.084Z,11.20
2017-12-05T06:55:41.631Z,11.12
2017-12-05T06:55:42.190Z,11.03
2017-12-05T06:56:36.204Z,9.96
2017-12-05T06:56:36.694Z,9.95
2017-12-05T06:56:37.257Z,9.86
2017-12-05T06:56:37.744Z,9.91
2017-12-05T06:56:38.246Z,9.92
2017-12-05T06:56:38.805Z,9.89
2017-12-05T06:56:39.379Z,9.92
2017-12-05T06:56:39.922Z,9.86
2017-12-05T06:57:33.459Z,8.96
2017-12-05T06:57:34.029Z,8.80
2017-12-05T06:57:34.545Z,9.03
2017-12-05T06:57:35.067Z,8.91
2017-12-05T06:57:35.589Z,9.01
2017-12-05T06:57:36.109Z,8.94
2017-12-05T06:57:36.668Z,8.94
2017-12-05T06:57:37.241Z,8.88
2017-12-05T06:57:37.768Z,8.89
2017-12-05T06:58:32.811Z,8.07
2017-12-05T06:58:33.322Z,8.17
2017-12-05T06:58:33.833Z,8.21
2017-12-05T06:58:34.400Z,8.18
2017-12-05T06:58:34.962Z,8.14
2017-12-05T06:58:35.509Z,8.14
2017-12-05T06:59:29.354Z,7.63
2017-12-05T06:59:29.876Z,7.63
2017-12-05T06:59:30.394Z,7.60
2017-12-05T06:59:30.962Z,7.67
2017-12-05T06:59:31.483Z,7.58
2017-12-05T06:59:32.014Z,7.57
2017-12-05T06:59:32.543Z,7.60
2017-12-05T06:59:33.118Z,7.55
2017-12-05T07:01:18.224Z,6.93
2017-12-05T07:01:18.744Z,6.94
2017-12-05T07:01:19.251Z,7.01
2017-12-05T07:01:19.789Z,6.93
2017-12-05T07:01:20.310Z,7.00
2017-12-05T07:01:20.842Z,6.99
2017-12-05T07:01:21.384Z,6.99
2017-12-05T07:01:21.958Z,6.99
2017-12-05T07:02:15.933Z,6.79
2017-12-05T07:02:16.444Z,6.79
2017-12-05T07:02:16.955Z,6.72
2017-12-05T07:02:17.562Z,6.76
2017-12-05T07:02:18.046Z,6.76
2017-12-05T07:02:18.561Z,6.73
2017-12-05T07:02:19.128Z,6.78
2017-12-05T07:02:19.683Z,6.72
2017-12-05T07:04:04.298Z,6.48
2017-12-05T07:04:04.810Z,6.53
2017-12-05T07:04:05.317Z,6.51
2017-12-05T07:04:05.847Z,6.50
2017-12-05T07:04:06.378Z,6.53
2017-12-05T07:04:06.920Z,6.51
2017-12-05T07:04:07.430Z,6.55
2017-12-05T07:04:08.012Z,6.53
2017-12-05T07:04:08.552Z,6.48
2017-12-05T07:05:02.560Z,6.38
2017-12-05T07:05:03.088Z,6.42
2017-12-05T07:05:03.620Z,6.38
2017-12-05T07:05:04.138Z,6.39
2017-12-05T07:05:04.661Z,6.42
2017-12-05T07:05:05.242Z,6.38
2017-12-05T07:05:05.713Z,6.46
2017-12-05T07:05:06.235Z,6.38
2017-12-05T07:06:00.195Z,6.33
2017-12-05T07:06:00.774Z,6.33
2017-12-05T07:06:01.293Z,6.32
2017-12-05T07:06:01.864Z,6.30
2017-12-05T07:06:02.385Z,6.36
2017-12-05T07:06:02.942Z,6.24
2017-12-05T07:06:03.517Z,6.32
2017-12-05T07:06:04.091Z,6.33
2017-12-05T12:15:03.406Z,11.54
2017-12-05T12:15:03.863Z,11.60
2017-12-05T12:15:04.363Z,11.57
2017-12-05T12:15:04.907Z,11.62
2017-12-05T12:15:05.397Z,11.53
2017-12-05T12:15:06.016Z,11.57
2017-12-05T12:15:06.562Z,11.60
2017-12-05T12:15:07.108Z,11.54
2017-12-05T12:15:07.672Z,11.46
2017-12-05T12:15:08.212Z,11.57
2017-12-05T12:15:08.755Z,11.46
2017-12-05T12:15:09.249Z,11.45
2017-12-05T12:15:09.869Z,11.48
2017-12-05T12:15:10.396Z,11.49
2017-12-05T12:15:10.913Z,11.51
2017-12-05T12:15:11.451Z,11.42
2017-12-05T12:15:12.371Z,11.44
2017-12-05T12:15:12.875Z,11.54
2017-12-05T12:15:13.516Z,11.48
2017-12-05T12:15:13.844Z,11.46
2017-12-05T12:15:14.381Z,11.39
2017-12-05T12:15:14.963Z,11.51
2017-12-05T12:15:15.510Z,11.30
2017-12-05T12:15:16.063Z,11.41
2017-12-05T12:15:16.593Z,11.41
2017-12-05T12:15:17.197Z,11.39
2017-12-05T12:15:17.770Z,11.31
2017-12-05T12:15:18.307Z,11.44
2017-12-05T12:15:18.822Z,11.41
2017-12-05T12:15:19.373Z,11.36
2017-12-05T12:15:19.897Z,11.36
2017-12-05T12:15:20.459Z,11.33
2017-12-05T12:15:21.011Z,11.33
2017-12-05T12:15:21.591Z,11.35
2017-12-05T12:15:22.137Z,11.38
2017-12-05T12:15:22.737Z,11.28
2017-12-05T12:15:23.291Z,11.35
2017-12-05T12:15:23.991Z,11.31
2017-12-05T12:15:24.625Z,11.33
2017-12-05T12:15:25.179Z,11.31
2017-12-05T12:15:25.681Z,11.27
2017-12-05T12:15:26.215Z,11.26
2017-12-05T12:15:26.737Z,11.30
2017-12-05T12:15:27.270Z,11.31
2017-12-05T12:15:27.819Z,11.27
2017-12-05T12:15:28.349Z,11.26
2017-12-05T12:15:28.871Z,11.24
2017-12-05T12:15:29.444Z,11.28
2017-12-05T12:15:29.987Z,11.30
2017-12-05T12:15:30.513Z,11.23
2017-12-05T12:15:31.075Z,11.26
2017-12-05T12:15:31.663Z,11.23
2017-12-05T12:15:32.207Z,11.27
2017-12-05T12:15:32.785Z,11.19
2017-12-05T12:15:33.310Z,11.12
2017-12-05T12:15:33.831Z,11.12
2017-12-05T12:15:34.387Z,11.16
2017-12-05T12:15:35.011Z,11.20
2017-12-05T12:15:35.579Z,11.16
2017-12-05T12:15:36.136Z,11.12
2017-12-05T12:15:36.655Z,11.16
2017-12-05T12:15:37.189Z,11.08
2017-12-05T12:15:37.717Z,11.06
2017-12-05T12:15:38.275Z,11.11
2017-12-05T12:15:38.799Z,11.13
2017-12-05T12:15:39.331Z,11.08
2017-12-05T12:15:39.907Z,11.05
2017-12-05T12:15:40.549Z,11.02
2017-12-05T12:15:41.103Z,11.11
2017-12-05T12:15:41.657Z,11.06
2017-12-05T12:15:42.128Z,11.06
2017-12-05T12:15:42.727Z,11.01
2017-12-05T12:15:43.269Z,11.03
2017-12-05T12:15:43.832Z,11.02
2017-12-05T12:15:44.377Z,10.95
2017-12-05T12:15:44.938Z,11.02
2017-12-05T12:15:45.505Z,11.02
2017-12-05T12:15:46.039Z,10.99
2017-12-05T12:15:46.618Z,10.95
2017-12-05T12:15:47.143Z,10.93
2017-12-05T12:15:47.745Z,10.95
2017-12-05T12:15:48.269Z,11.08
2017-12-05T12:15:48.832Z,11.06
2017-12-05T12:15:49.361Z,10.95
2017-12-05T12:15:49.898Z,10.88
2017-12-05T12:15:50.469Z,10.93
2017-12-05T12:15:51.009Z,10.90
2017-12-05T12:15:51.571Z,11.02
2017-12-05T12:15:52.149Z,10.98
2017-12-05T12:15:52.672Z,10.91
2017-12-05T12:15:53.230Z,10.87
2017-12-05T12:15:53.801Z,10.90
2017-12-05T12:15:54.347Z,10.86
2017-12-05T12:15:54.866Z,10.98
2017-12-05T12:15:55.387Z,10.87
2017-12-05T12:15:55.918Z,10.91
2017-12-05T12:15:56.447Z,10.81
2017-12-05T12:15:57.013Z,10.90
2017-12-05T12:15:57.547Z,10.87
2017-12-05T12:15:58.136Z,10.87
2017-12-05T12:15:58.698Z,10.88
2017-12-05T12:15:59.223Z,10.76
2017-12-05T12:15:59.771Z,10.88
2017-12-05T12:16:00.289Z,10.84
2017-12-05T12:16:00.864Z,10.88
2017-12-05T12:16:01.422Z,10.93
2017-12-05T12:16:01.963Z,10.95
2017-12-05T12:16:02.562Z,10.93
2017-12-05T12:16:03.085Z,10.87
2017-12-05T12:16:03.678Z,10.80
2017-12-05T12:16:04.208Z,10.84
2017-12-05T12:16:04.737Z,10.83
2017-12-05T12:16:05.305Z,10.80
2017-12-05T12:16:05.835Z,10.76
2017-12-05T12:16:06.387Z,10.76
2017-12-05T12:16:06.989Z,10.81
2017-12-05T12:16:07.496Z,10.76
2017-12-05T12:16:08.051Z,10.80
2017-12-05T12:16:08.581Z,10.76
2017-12-05T12:16:09.160Z,10.76
2017-12-05T12:16:09.677Z,10.73
2017-12-05T12:16:10.207Z,10.72
2017-12-05T12:16:10.788Z,10.72
2017-12-05T12:16:11.315Z,10.75
2017-12-05T12:16:11.913Z,10.72
2017-12-05T12:16:12.437Z,10.73
2017-12-05T12:16:12.957Z,10.68
2017-12-05T12:16:13.497Z,10.72
2017-12-05T12:16:14.049Z,10.80
2017-12-05T12:16:14.613Z,10.63
2017-12-05T12:16:15.180Z,10.70
2017-12-05T12:16:15.705Z,10.65
2017-12-05T12:16:16.265Z,10.66
2017-12-05T12:16:16.787Z,10.66
2017-12-05T12:16:17.341Z,10.66
2017-12-05T12:16:17.857Z,10.66
2017-12-05T12:16:18.395Z,10.68
2017-12-05T12:16:18.951Z,10.63
2017-12-05T12:16:19.515Z,10.66
2017-12-05T12:16:20.023Z,10.65
2017-12-05T12:16:20.565Z,10.63
2017-12-05T12:16:21.087Z,10.63
2017-12-05T12:16:21.615Z,10.63
2017-12-05T12:16:22.123Z,10.58
2017-12-05T12:16:22.706Z,10.54
2017-12-05T12:16:23.222Z,10.60
2017-12-05T12:16:23.767Z,10.54
2017-12-05T12:16:24.286Z,10.49
2017-12-05T12:16:24.859Z,10.54
2017-12-05T12:16:25.423Z,10.62
2017-12-05T12:16:25.979Z,10.52
2017-12-05T12:16:26.549Z,10.49
2017-12-05T12:16:27.075Z,10.47
2017-12-05T12:16:27.605Z,10.46
2017-12-05T12:16:28.125Z,10.47
2017-12-05T12:16:28.710Z,10.46
2017-12-05T12:16:29.257Z,10.49
2017-12-05T12:16:29.829Z,10.44
2017-12-05T12:16:30.375Z,10.47
2017-12-05T12:16:30.853Z,10.39
2017-12-05T12:16:31.429Z,10.46
2017-12-05T12:16:31.969Z,10.43
2017-12-05T12:16:32.543Z,10.42
2017-12-05T12:16:33.057Z,10.46
2017-12-05T12:16:33.571Z,10.42
2017-12-05T12:16:34.131Z,10.38
2017-12-05T12:16:34.670Z,10.46
2017-12-05T12:16:35.218Z,10.42
2017-12-05T12:16:35.708Z,10.42
2017-12-05T12:16:36.230Z,10.39
2017-12-05T12:16:36.755Z,10.38
2017-12-05T12:16:37.296Z,10.35
2017-12-05T12:16:37.862Z,10.36
2017-12-05T12:16:38.300Z,10.39
2017-12-05T12:16:38.878Z,10.36
2017-12-05T12:16:39.448Z,10.36
2017-12-05T12:16:39.967Z,10.35
2017-12-05T12:16:40.541Z,10.32
2017-12-05T12:16:41.075Z,10.38
2017-12-05T12:16:41.606Z,10.32
2017-12-05T12:16:42.129Z,10.29
2017-12-05T12:16:42.715Z,10.35
2017-12-05T12:16:43.271Z,10.28
2017-12-05T12:16:43.795Z,10.29
2017-12-05T12:16:44.378Z,10.28
2017-12-05T12:16:44.895Z,10.28
2017-12-05T12:16:45.426Z,10.31
2017-12-05T12:16:45.968Z,10.35
2017-12-05T12:16:46.538Z,10.35
2017-12-05T12:16:47.113Z,10.31
2017-12-05T12:16:47.663Z,10.35
2017-12-05T12:16:48.210Z,10.25
2017-12-05T12:16:48.787Z,10.29
2017-12-05T12:16:49.339Z,10.28
2017-12-05T12:16:49.895Z,10.29
2017-12-05T12:16:50.425Z,10.29
2017-12-05T12:16:51.018Z,10.31
2017-12-05T12:16:51.574Z,10.26
2017-12-05T12:16:52.131Z,10.26
2017-12-05T12:16:52.719Z,10.18
2017-12-05T12:16:53.242Z,10.24
2017-12-05T12:16:53.777Z,10.24
2017-12-05T12:16:54.395Z,10.13
2017-12-05T12:16:54.929Z,10.18
2017-12-05T12:16:55.497Z,10.18
2017-12-05T12:16:56.073Z,10.17
2017-12-05T12:16:56.614Z,10.18
2017-12-05T12:16:57.218Z,10.14
2017-12-05T12:16:58.759Z,10.20
2017-12-05T12:16:59.157Z,10.20
2017-12-05T12:16:59.687Z,10.14
2017-12-05T12:17:00.211Z,10.13
2017-12-05T12:17:00.787Z,10.17
2017-12-05T12:17:01.334Z,10.14
2017-12-05T12:17:01.856Z,10.10
2017-12-05T12:17:02.371Z,10.09
2017-12-05T12:17:02.926Z,10.10
2017-12-05T12:17:03.506Z,10.13
2017-12-05T12:17:04.048Z,10.14
2017-12-05T12:17:04.600Z,10.09
2017-12-05T12:17:05.117Z,10.13
2017-12-05T12:17:05.657Z,10.10
2017-12-05T12:17:06.177Z,10.07
2017-12-05T12:17:06.697Z,10.11
2017-12-05T12:17:07.251Z,10.11
2017-12-05T12:17:07.821Z,10.11
2017-12-05T12:17:08.389Z,10.13
2017-12-05T12:17:08.913Z,10.11
2017-12-05T12:17:09.480Z,10.09
2017-12-05T12:17:10.061Z,10.06
2017-12-05T12:17:10.591Z,10.13
2017-12-05T12:17:11.115Z,10.06
2017-12-05T12:17:11.632Z,9.99
2017-12-05T12:17:12.158Z,10.14
2017-12-05T12:17:12.693Z,10.01
2017-12-05T12:17:13.251Z,10.09
2017-12-05T12:17:13.818Z,10.01
2017-12-05T12:17:14.367Z,10.13
2017-12-05T12:17:14.937Z,10.07
2017-12-05T12:17:15.457Z,10.07
2017-12-05T12:17:15.976Z,9.93
2017-12-05T12:17:16.565Z,9.98
2017-12-05T12:17:17.095Z,10.06
2017-12-05T12:17:17.669Z,9.93
2017-12-05T12:17:18.197Z,10.04
2017-12-05T12:17:18.782Z,10.02
2017-12-05T12:17:19.336Z,9.95
2017-12-05T12:17:19.889Z,9.98
2017-12-05T12:17:20.466Z,10.01
2017-12-05T12:17:20.983Z,9.99
2017-12-05T12:17:21.578Z,10.07
2017-12-05T12:17:22.131Z,9.98
2017-12-05T12:17:22.699Z,9.95
2017-12-05T12:17:23.255Z,10.01
2017-12-05T12:17:23.781Z,10.02
2017-12-05T12:17:24.318Z,9.98
2017-12-05T12:17:24.847Z,9.96
2017-12-05T12:17:25.424Z,9.95
2017-12-05T12:17:25.967Z,9.89
2017-12-05T12:17:26.497Z,9.95
2017-12-05T12:17:27.059Z,9.92
2017-12-05T12:17:27.621Z,9.92
2017-12-05T12:17:28.213Z,9.91
2017-12-05T12:17:28.804Z,9.88
2017-12-05T12:17:29.364Z,9.88
2017-12-05T12:17:29.883Z,9.89
2017-12-05T12:17:30.459Z,9.89
2017-12-05T12:17:30.993Z,9.89
2017-12-05T12:17:31.576Z,9.89
2017-12-05T12:17:32.097Z,9.77
2017-12-05T12:17:32.627Z,9.91
2017-12-05T12:17:33.229Z,9.81
2017-12-05T12:17:33.797Z,9.83
2017-12-05T12:17:34.403Z,9.80
2017-12-05T12:17:34.916Z,9.77
2017-12-05T12:17:35.450Z,9.81
2017-12-05T12:17:35.963Z,9.91
2017-12-05T12:17:36.541Z,9.77
2017-12-05T12:17:37.086Z,9.81
2017-12-05T12:17:37.606Z,9.88
2017-12-05T12:17:38.137Z,9.78
2017-12-05T12:17:38.667Z,9.80
2017-12-05T12:17:39.248Z,9.78
2017-12-05T12:17:39.767Z,9.80
2017-12-05T12:17:40.296Z,9.75
2017-12-05T12:17:40.871Z,9.78
2017-12-05T12:17:41.400Z,9.80
2017-12-05T12:17:41.938Z,9.74
2017-12-05T12:17:42.477Z,9.77
2017-12-05T12:17:43.005Z,9.81
2017-12-05T12:17:43.590Z,9.85
2017-12-05T12:17:44.124Z,9.80
2017-12-05T12:17:44.685Z,9.71
2017-12-05T12:17:45.201Z,9.78
2017-12-05T12:17:45.725Z,9.74
2017-12-05T12:17:46.297Z,9.75
2017-12-05T12:17:46.850Z,9.74
2017-12-05T12:17:47.419Z,9.68
2017-12-05T12:17:47.945Z,9.62
2017-12-05T12:17:48.536Z,9.63
2017-12-05T12:17:49.092Z,9.68
2017-12-05T12:17:49.657Z,9.73
2017-12-05T12:17:50.235Z,9.68
2017-12-05T12:17:50.745Z,9.68
2017-12-05T12:17:51.304Z,9.67
2017-12-05T12:17:51.828Z,9.71
2017-12-05T12:17:52.430Z,9.60
2017-12-05T12:17:52.947Z,9.68
2017-12-05T12:17:53.482Z,9.70
2017-12-05T12:17:54.019Z,9.63
2017-12-05T12:17:54.575Z,9.67
2017-12-05T12:17:55.149Z,9.68
2017-12-05T12:17:55.743Z,9.65
2017-12-05T12:17:56.267Z,9.56
2017-12-05T12:17:56.785Z,9.60
2017-12-05T12:17:57.357Z,9.58
2017-12-05T12:17:57.882Z,9.60
2017-12-05T12:17:58.425Z,9.59
2017-12-05T12:17:58.922Z,9.60
2017-12-05T12:17:59.505Z,9.62
2017-12-05T12:18:00.081Z,9.62
2017-12-05T12:18:00.617Z,9.50
2017-12-05T12:18:01.205Z,9.62
2017-12-05T12:18:01.732Z,9.59
2017-12-05T12:18:02.305Z,9.58
2017-12-05T12:18:02.817Z,9.56
2017-12-05T12:18:03.335Z,9.56
2017-12-05T12:18:03.916Z,9.52
2017-12-05T12:18:04.471Z,9.48
2017-12-05T12:18:05.031Z,9.60
2017-12-05T12:18:05.550Z,9.49
2017-12-05T12:18:06.136Z,9.44
2017-12-05T12:18:06.699Z,9.52
2017-12-05T12:18:07.255Z,9.42
2017-12-05T12:18:07.797Z,9.50
2017-12-05T12:18:08.317Z,9.52
2017-12-05T12:18:08.839Z,9.50
2017-12-05T12:18:09.361Z,9.50
2017-12-05T12:18:09.895Z,9.50
2017-12-05T12:18:10.465Z,9.50
2017-12-05T12:18:11.004Z,9.53
2017-12-05T12:18:11.607Z,9.48
2017-12-05T12:18:12.027Z,9.53
2017-12-05T12:18:12.515Z,9.53
2017-12-05T12:18:13.035Z,9.50
2017-12-05T12:18:13.580Z,9.42
2017-12-05T12:18:14.155Z,9.48
2017-12-05T12:18:14.696Z,9.48
2017-12-05T12:18:15.268Z,9.44
2017-12-05T12:18:15.789Z,9.48
2017-12-05T12:18:16.382Z,9.49
2017-12-05T12:18:16.909Z,9.45
2017-12-05T12:18:17.507Z,9.38
2017-12-05T12:18:18.045Z,9.44
2017-12-05T12:18:18.567Z,9.40
2017-12-05T12:18:19.085Z,9.40
2017-12-05T12:18:19.634Z,9.40
2017-12-05T12:18:20.207Z,9.40
2017-12-05T12:18:20.775Z,9.35
2017-12-05T12:18:21.306Z,9.34
2017-12-05T12:18:21.852Z,9.35
2017-12-05T12:18:22.376Z,9.38
2017-12-05T12:18:22.927Z,9.32
2017-12-05T12:18:23.507Z,9.40
2017-12-05T12:18:24.028Z,9.38
2017-12-05T12:18:24.598Z,9.34
2017-12-05T12:18:25.119Z,9.35
2017-12-05T12:18:25.687Z,9.31
2017-12-05T12:18:26.213Z,9.35
2017-12-05T12:18:26.783Z,9.35
2017-12-05T12:18:27.336Z,9.30
2017-12-05T12:18:27.868Z,9.31
2017-12-05T12:18:28.385Z,9.32
2017-12-05T12:18:28.924Z,9.34
2017-12-05T12:18:29.523Z,9.30
2017-12-05T12:18:30.052Z,9.34
2017-12-05T12:18:30.619Z,9.19
2017-12-05T12:18:31.177Z,9.26
2017-12-05T12:18:31.729Z,9.26
2017-12-05T12:18:32.247Z,9.30
2017-12-05T12:18:32.769Z,9.27
2017-12-05T12:18:33.359Z,9.32
2017-12-05T12:18:33.883Z,9.23
2017-12-05T12:18:34.420Z,9.22
2017-12-05T12:18:34.929Z,9.24
2017-12-05T12:18:35.505Z,9.22
2017-12-05T12:18:36.019Z,9.22
2017-12-05T12:18:36.537Z,9.22
2017-12-05T12:18:37.073Z,9.30
2017-12-05T12:18:37.669Z,9.22
2017-12-05T12:18:38.219Z,9.27
2017-12-05T12:18:38.767Z,9.23
2017-12-05T12:18:39.351Z,9.26
2017-12-05T12:18:39.895Z,9.19
2017-12-05T12:18:40.472Z,9.20
2017-12-05T12:18:41.062Z,9.15
2017-12-05T12:18:41.580Z,9.22
2017-12-05T12:18:42.143Z,9.27
2017-12-05T12:18:42.663Z,9.19
2017-12-05T12:18:43.259Z,9.10
2017-12-05T12:18:43.819Z,9.12
2017-12-05T12:18:44.387Z,9.19
2017-12-05T12:18:44.929Z,9.15
2017-12-05T12:18:45.456Z,9.13
2017-12-05T12:18:46.031Z,9.12
2017-12-05T12:18:46.601Z,9.10
2017-12-05T12:18:47.127Z,9.10
2017-12-05T12:18:47.653Z,9.00
2017-12-05T12:18:48.223Z,9.10
2017-12-05T12:18:48.769Z,9.15
2017-12-05T12:18:49.297Z,9.12
2017-12-05T12:18:49.851Z,9.01
2017-12-05T12:18:50.427Z,9.04
2017-12-05T12:18:50.953Z,9.00
2017-12-05T12:18:51.494Z,9.06
2017-12-05T12:18:52.013Z,9.06
2017-12-05T12:18:52.577Z,9.03
2017-12-05T12:18:53.147Z,9.03
2017-12-05T12:18:53.733Z,9.08
2017-12-05T12:18:54.311Z,9.00
2017-12-05T12:18:54.829Z,9.06
2017-12-05T12:18:55.346Z,9.12
2017-12-05T12:18:55.884Z,9.10
2017-12-05T12:18:56.459Z,9.04
2017-12-05T12:18:57.010Z,9.04
2017-12-05T12:18:57.527Z,9.01
2017-12-05T12:18:58.045Z,9.03
2017-12-05T12:18:58.567Z,9.00
2017-12-05T12:18:59.087Z,9.08
2017-12-05T12:18:59.667Z,9.00
2017-12-05T12:19:00.233Z,9.08
2017-12-05T12:19:00.783Z,9.12
2017-12-05T12:19:01.295Z,8.97
2017-12-05T12:19:01.837Z,9.04
2017-12-05T12:19:02.375Z,8.93
2017-12-05T12:19:02.931Z,8.97
2017-12-05T12:19:03.457Z,8.94
2017-12-05T12:19:04.079Z,9.01
2017-12-05T12:19:04.631Z,8.98
2017-12-05T12:19:05.169Z,8.98
2017-12-05T12:19:05.699Z,8.94
2017-12-05T12:19:06.255Z,8.93
2017-12-05T12:19:06.781Z,8.98
2017-12-05T12:19:07.311Z,8.89
2017-12-05T12:19:07.829Z,8.91
2017-12-05T12:19:08.353Z,8.94
2017-12-05T12:19:08.873Z,8.98
2017-12-05T12:19:09.417Z,9.01
2017-12-05T12:19:09.983Z,9.06
2017-12-05T12:19:10.563Z,9.01
2017-12-05T12:19:11.101Z,8.97
2017-12-05T12:19:11.651Z,8.88
2017-12-05T12:19:12.175Z,8.96
2017-12-05T12:19:12.713Z,8.93
2017-12-05T12:19:13.257Z,9.01
2017-12-05T12:19:13.809Z,8.94
2017-12-05T12:19:14.355Z,8.91
2017-12-05T12:19:14.942Z,8.94
2017-12-05T12:19:15.511Z,8.91
2017-12-05T12:19:16.043Z,8.97
2017-12-05T12:19:16.586Z,8.97
2017-12-05T12:19:17.125Z,8.88
2017-12-05T12:19:17.695Z,8.91
2017-12-05T12:19:18.215Z,8.86
2017-12-05T12:19:18.803Z,8.88
2017-12-05T12:19:19.355Z,8.82
2017-12-05T12:19:19.873Z,8.88
2017-12-05T12:19:20.419Z,8.79
2017-12-05T12:19:20.982Z,8.83
2017-12-05T12:19:21.577Z,8.86
2017-12-05T12:19:22.139Z,8.78
2017-12-05T12:19:22.654Z,8.78
2017-12-05T12:19:23.175Z,8.86
2017-12-05T12:19:23.730Z,8.85
2017-12-05T12:19:24.277Z,8.83
2017-12-05T12:19:24.851Z,8.79
2017-12-05T12:19:25.421Z,8.82
2017-12-05T12:19:25.965Z,8.85
2017-12-05T12:19:26.485Z,8.88
2017-12-05T12:19:27.003Z,8.78
2017-12-05T12:19:27.578Z,8.83
2017-12-05T12:19:28.137Z,8.79
2017-12-05T12:19:28.658Z,8.80
2017-12-05T12:19:29.185Z,8.80
2017-12-05T12:19:29.727Z,8.79
2017-12-05T12:19:30.306Z,8.75
2017-12-05T12:19:30.845Z,8.71
2017-12-05T12:19:31.421Z,8.78
2017-12-05T12:19:31.935Z,8.71
2017-12-05T12:19:32.506Z,8.73
2017-12-05T12:19:33.095Z,8.73
2017-12-05T12:19:33.668Z,8.78
2017-12-05T12:19:34.225Z,8.75
2017-12-05T12:19:34.773Z,8.78
2017-12-05T12:19:35.261Z,8.73
2017-12-05T12:19:35.759Z,8.75
2017-12-05T12:19:36.284Z,8.75
2017-12-05T12:19:36.808Z,8.73
2017-12-05T12:19:37.359Z,8.73
2017-12-05T12:19:37.909Z,8.75
2017-12-05T12:19:38.467Z,8.76
2017-12-05T12:19:39.009Z,8.70
2017-12-05T12:19:39.574Z,8.75
2017-12-05T12:19:40.137Z,8.68
2017-12-05T12:19:40.693Z,8.64
2017-12-05T12:19:41.215Z,8.79
2017-12-05T12:19:41.817Z,8.71
2017-12-05T12:19:42.374Z,8.70
2017-12-05T12:19:42.927Z,8.64
2017-12-05T12:19:43.502Z,8.65
2017-12-05T12:19:44.037Z,8.65
2017-12-05T12:19:44.672Z,8.70
2017-12-05T12:19:45.101Z,8.70
2017-12-05T12:19:45.648Z,8.67
2017-12-05T12:19:46.227Z,8.68
2017-12-05T12:19:46.768Z,8.67
2017-12-05T12:19:47.307Z,8.65
2017-12-05T12:19:47.829Z,8.65
2017-12-05T12:19:48.378Z,8.71
2017-12-05T12:19:48.931Z,8.63
2017-12-05T12:19:49.507Z,8.64
2017-12-05T12:19:50.057Z,8.60
2017-12-05T12:19:50.575Z,8.60
2017-12-05T12:19:51.097Z,8.54
2017-12-05T12:19:51.649Z,8.65
2017-12-05T12:19:52.219Z,8.60
2017-12-05T12:19:52.791Z,8.65
2017-12-05T12:19:53.315Z,8.61
2017-12-05T12:19:53.833Z,8.63
2017-12-05T12:19:54.388Z,8.57
2017-12-05T12:19:54.925Z,8.58
2017-12-05T12:19:55.503Z,8.55
2017-12-05T12:19:56.071Z,8.49
2017-12-05T12:19:56.607Z,8.52
2017-12-05T12:19:57.127Z,8.50
2017-12-05T12:19:57.678Z,8.54
2017-12-05T12:19:58.207Z,8.60
2017-12-05T12:19:58.782Z,8.57
2017-12-05T12:19:59.340Z,8.54
2017-12-05T12:19:59.863Z,8.54
2017-12-05T12:20:00.468Z,8.49
2017-12-05T12:20:01.016Z,8.55
2017-12-05T12:20:01.533Z,8.54
2017-12-05T12:20:02.131Z,8.50
2017-12-05T12:20:02.668Z,8.55
2017-12-05T12:20:03.254Z,8.52
2017-12-05T12:20:03.803Z,8.50
2017-12-05T12:20:04.331Z,8.52
2017-12-05T12:20:04.856Z,8.50
2017-12-05T12:20:05.388Z,8.57
2017-12-05T12:20:05.931Z,8.60
2017-12-05T12:20:06.454Z,8.57
2017-12-05T12:20:07.009Z,8.43
2017-12-05T12:20:07.577Z,8.54
2017-12-05T12:20:08.137Z,8.43
2017-12-05T12:20:08.690Z,8.49
2017-12-05T12:20:09.221Z,8.49
2017-12-05T12:20:09.815Z,8.47
2017-12-05T12:20:10.391Z,8.46
2017-12-05T12:20:10.929Z,8.47
2017-12-05T12:20:11.510Z,8.47
2017-12-05T12:20:12.061Z,8.40
2017-12-05T12:20:12.606Z,8.50
2017-12-05T12:20:13.167Z,8.50
2017-12-05T12:20:13.696Z,8.43
2017-12-05T12:20:14.267Z,8.42
2017-12-05T12:20:14.799Z,8.46
2017-12-05T12:20:15.337Z,8.45
2017-12-05T12:20:15.901Z,8.42
2017-12-05T12:20:16.473Z,8.39
2017-12-05T12:20:17.066Z,8.34
2017-12-05T12:20:17.627Z,8.42
2017-12-05T12:20:18.216Z,8.40
2017-12-05T12:20:18.776Z,8.52
2017-12-05T12:20:19.305Z,8.45
2017-12-05T12:20:19.897Z,8.49
2017-12-05T12:20:20.466Z,8.34
2017-12-05T12:20:21.027Z,8.39
2017-12-05T12:20:21.567Z,8.39
2017-12-05T12:20:22.130Z,8.36
2017-12-05T12:20:22.609Z,8.39
2017-12-05T12:20:23.142Z,8.43
2017-12-05T12:20:23.694Z,8.42
2017-12-05T12:20:24.219Z,8.43
2017-12-05T12:20:24.772Z,8.36
2017-12-05T12:20:25.349Z,8.40
2017-12-05T12:20:25.876Z,8.42
2017-12-05T12:20:26.371Z,8.42
2017-12-05T12:20:26.937Z,8.42
2017-12-05T12:20:27.510Z,8.40
2017-12-05T12:20:28.051Z,8.40
2017-12-05T12:20:28.572Z,8.40
2017-12-05T12:20:29.149Z,8.37
2017-12-05T12:20:29.733Z,8.40
2017-12-05T12:20:30.301Z,8.34
2017-12-05T12:20:30.851Z,8.34
2017-12-05T12:20:31.377Z,8.40
2017-12-05T12:20:31.898Z,8.42
2017-12-05T12:20:32.417Z,8.36
2017-12-05T12:20:32.944Z,8.34
2017-12-05T12:20:33.457Z,8.34
2017-12-05T12:20:33.985Z,8.37
2017-12-05T12:20:34.537Z,8.31
2017-12-05T12:20:35.111Z,8.36
2017-12-05T12:20:35.645Z,8.34
2017-12-05T12:20:36.213Z,8.29
2017-12-05T12:20:36.685Z,8.29
2017-12-05T12:20:37.232Z,8.27
2017-12-05T12:20:37.749Z,8.31
2017-12-05T12:20:38.300Z,8.28
2017-12-05T12:20:38.814Z,8.28
2017-12-05T12:20:39.331Z,8.27
2017-12-05T12:20:39.859Z,8.27
2017-12-05T12:20:40.383Z,8.29
2017-12-05T12:20:40.929Z,8.27
2017-12-05T12:20:41.503Z,8.31
2017-12-05T12:20:42.056Z,8.27
2017-12-05T12:20:42.601Z,8.34
2017-12-05T12:20:43.095Z,8.27
2017-12-05T12:20:43.616Z,8.25
2017-12-05T12:20:44.137Z,8.24
2017-12-05T12:20:44.690Z,8.20
2017-12-05T12:20:45.261Z,8.31
2017-12-05T12:20:45.802Z,8.22
2017-12-05T12:20:46.327Z,8.24
2017-12-05T12:20:46.843Z,8.14
2017-12-05T12:20:47.423Z,8.25
2017-12-05T12:20:47.955Z,8.18
2017-12-05T12:20:48.489Z,8.24
2017-12-05T12:20:49.037Z,8.21
2017-12-05T12:20:49.569Z,8.21
2017-12-05T12:20:50.084Z,8.22
2017-12-05T12:20:50.607Z,8.13
2017-12-05T12:20:51.127Z,8.14
2017-12-05T12:20:51.647Z,8.22
2017-12-05T12:20:52.178Z,8.27
2017-12-05T12:20:52.696Z,8.22
2017-12-05T12:20:53.225Z,8.18
2017-12-05T12:20:53.747Z,8.09
2017-12-05T12:20:54.304Z,8.13
2017-12-05T12:20:54.853Z,8.14
2017-12-05T12:20:55.466Z,8.17
2017-12-05T12:20:55.987Z,8.14
2017-12-05T12:20:56.503Z,8.12
2017-12-05T12:20:57.037Z,8.17
2017-12-05T12:20:57.563Z,8.12
2017-12-05T12:20:58.125Z,8.21
2017-12-05T12:20:58.653Z,8.17
2017-12-05T12:20:59.188Z,8.18
2017-12-05T12:20:59.726Z,8.21
2017-12-05T12:21:00.251Z,8.22
2017-12-05T12:21:00.769Z,8.17
2017-12-05T12:21:01.296Z,8.13
2017-12-05T12:21:01.827Z,8.12
2017-12-05T12:21:02.358Z,8.12
2017-12-05T12:21:02.906Z,8.13
2017-12-05T12:21:03.435Z,8.12
2017-12-05T12:21:03.967Z,8.14
2017-12-05T12:21:04.531Z,8.18
2017-12-05T12:21:05.057Z,8.12
2017-12-05T12:21:05.573Z,8.21
2017-12-05T12:21:06.097Z,8.18
2017-12-05T12:21:06.612Z,8.18
2017-12-05T12:21:07.124Z,8.09
2017-12-05T12:21:07.661Z,8.17
2017-12-05T12:21:08.237Z,8.18
2017-12-05T12:21:08.777Z,8.21
2017-12-05T12:21:09.396Z,8.17
2017-12-05T12:21:09.825Z,8.13
2017-12-05T12:21:10.363Z,8.10
2017-12-05T12:21:10.931Z,8.07
2017-12-05T12:21:11.467Z,8.07
2017-12-05T12:21:12.043Z,8.09
2017-12-05T12:21:12.519Z,8.13
2017-12-05T12:21:13.043Z,8.07
2017-12-05T12:21:13.569Z,8.07
2017-12-05T12:21:14.087Z,8.09
2017-12-05T12:21:14.653Z,8.07
2017-12-05T12:21:15.177Z,8.10
2017-12-05T12:21:15.728Z,8.06
2017-12-05T12:21:16.257Z,8.07
2017-12-05T12:21:16.783Z,8.10
2017-12-05T12:21:17.307Z,8.09
2017-12-05T12:21:17.829Z,8.07
2017-12-05T12:21:18.395Z,8.09
2017-12-05T12:21:18.945Z,8.06
2017-12-05T12:21:19.494Z,8.07
2017-12-05T12:21:20.069Z,8.09
2017-12-05T12:21:20.616Z,8.09
2017-12-05T12:21:21.196Z,8.09
2017-12-05T12:21:21.725Z,8.07
2017-12-05T12:21:22.325Z,8.00
2017-12-05T12:21:22.834Z,8.09
2017-12-05T12:21:23.433Z,8.07
2017-12-05T12:21:23.949Z,7.99
2017-12-05T12:21:24.535Z,8.06
2017-12-05T12:21:25.103Z,8.07
2017-12-05T12:21:25.651Z,8.06
2017-12-05T12:21:26.174Z,8.03
2017-12-05T12:21:26.699Z,7.95
2017-12-05T12:21:27.354Z,8.07
2017-12-05T12:21:28.003Z,8.06